This is the latest recevied weather packets stored in our database for station/object PY2XH-13. If no packets are shown the sender has not sent any weather packets the latest 10 day(s).
| Time | Temp. | Humidity | Pressure | Rain* | Wind** | Luminosity | Snow |
|---|---|---|---|---|---|---|---|
| 1777612564 | 23.33° C | 66% | 1033.6 hPa | - | - | - | - |
| 1777610764 | 23.33° C | 67% | 1033.7 hPa | - | - | - | - |
| 1777608964 | 23.33° C | 67% | 1034 hPa | - | - | - | - |
| 1777607165 | 23.33° C | 66% | 1034.3 hPa | - | - | - | - |
| 1777605365 | 23.33° C | 67% | 1034.4 hPa | - | - | - | - |
| 1777603564 | 23.33° C | 67% | 1034.5 hPa | - | - | - | - |
| 1777601764 | 23.33° C | 67% | 1034.8 hPa | - | - | - | - |
| 1777599965 | 23.33° C | 67% | 1034.7 hPa | - | - | - | - |
| 1777598165 | 23.89° C | 65% | 1034.7 hPa | - | - | - | - |
| 1777596365 | 23.89° C | 63% | 1034.6 hPa | - | - | - | - |
| 1777594565 | 23.89° C | 64% | 1034.6 hPa | - | - | - | - |
| 1777592765 | 23.33° C | 65% | 1034.2 hPa | - | - | - | - |
| 1777590965 | 23.33° C | 64% | 1034.1 hPa | - | - | - | - |
| 1777589165 | 23.33° C | 64% | 1033.8 hPa | - | - | - | - |
| 1777587364 | 23.33° C | 64% | 1033.5 hPa | - | - | - | - |
| 1777585564 | 23.33° C | 63% | 1033 hPa | - | - | - | - |
| 1777583764 | 23.33° C | 63% | 1032.5 hPa | - | - | - | - |
| 1777581964 | 23.33° C | 63% | 1032.5 hPa | - | - | - | - |
| 1777580164 | 23.33° C | 64% | 1032.2 hPa | - | - | - | - |
| 1777578364 | 23.89° C | 64% | 1031.8 hPa | - | - | - | - |
| 1777576564 | 23.89° C | 65% | 1031.4 hPa | - | - | - | - |
| 1777574765 | 24.44° C | 65% | 1031 hPa | - | - | - | - |
| 1777572964 | 25.56° C | 60% | 1030.7 hPa | - | - | - | - |
| 1777571165 | 25° C | 62% | 1030.6 hPa | - | - | - | - |
| 1777569364 | 25° C | 64% | 1030.5 hPa | - | - | - | - |
* Rain since midnight (hover to see other rain measurements)
** Current wind speed in m/s (hover to see current wind gust speed)